sensor_id;sensor_type;location;lat;lon;timestamp;P1;durP1;ratioP1;P2;durP2;ratioP2
75586;SDS011;64164;50.156;14.570;2022-12-24T00:02:15;11.25;;;5.53;;
75586;SDS011;64164;50.156;14.570;2022-12-24T00:04:41;12.50;;;5.77;;
75586;SDS011;64164;50.156;14.570;2022-12-24T00:07:06;11.80;;;5.37;;
75586;SDS011;64164;50.156;14.570;2022-12-24T00:09:31;12.07;;;5.57;;
75586;SDS011;64164;50.156;14.570;2022-12-24T00:11:56;12.57;;;5.90;;
75586;SDS011;64164;50.156;14.570;2022-12-24T00:14:22;8.57;;;4.33;;
75586;SDS011;64164;50.156;14.570;2022-12-24T00:16:47;7.50;;;4.43;;
75586;SDS011;64164;50.156;14.570;2022-12-24T00:19:12;8.60;;;4.40;;
75586;SDS011;64164;50.156;14.570;2022-12-24T00:21:37;8.63;;;4.35;;
75586;SDS011;64164;50.156;14.570;2022-12-24T00:24:03;9.73;;;5.17;;
75586;SDS011;64164;50.156;14.570;2022-12-24T00:26:29;9.25;;;3.65;;
75586;SDS011;64164;50.156;14.570;2022-12-24T00:28:55;6.90;;;4.07;;
75586;SDS011;64164;50.156;14.570;2022-12-24T00:31:20;4.57;;;2.37;;
75586;SDS011;64164;50.156;14.570;2022-12-24T00:33:45;5.40;;;3.07;;
75586;SDS011;64164;50.156;14.570;2022-12-24T00:36:10;9.95;;;4.93;;
75586;SDS011;64164;50.156;14.570;2022-12-24T00:38:36;9.00;;;4.17;;
75586;SDS011;64164;50.156;14.570;2022-12-24T00:41:02;9.98;;;4.93;;
75586;SDS011;64164;50.156;14.570;2022-12-24T00:43:27;8.48;;;4.57;;
75586;SDS011;64164;50.156;14.570;2022-12-24T00:45:53;7.43;;;4.03;;
75586;SDS011;64164;50.156;14.570;2022-12-24T00:48:18;7.57;;;4.23;;
75586;SDS011;64164;50.156;14.570;2022-12-24T00:50:43;7.80;;;3.60;;
75586;SDS011;64164;50.156;14.570;2022-12-24T00:53:08;8.53;;;3.77;;
75586;SDS011;64164;50.156;14.570;2022-12-24T00:55:34;4.73;;;2.13;;
75586;SDS011;64164;50.156;14.570;2022-12-24T00:57:59;5.67;;;2.73;;
75586;SDS011;64164;50.156;14.570;2022-12-24T01:00:24;4.47;;;2.27;;
75586;SDS011;64164;50.156;14.570;2022-12-24T01:02:49;5.93;;;3.17;;
75586;SDS011;64164;50.156;14.570;2022-12-24T01:05:15;5.70;;;2.80;;
75586;SDS011;64164;50.156;14.570;2022-12-24T01:07:41;6.90;;;2.95;;
75586;SDS011;64164;50.156;14.570;2022-12-24T01:10:08;5.20;;;2.65;;
75586;SDS011;64164;50.156;14.570;2022-12-24T01:12:33;4.55;;;2.22;;
75586;SDS011;64164;50.156;14.570;2022-12-24T01:14:58;5.10;;;2.30;;
75586;SDS011;64164;50.156;14.570;2022-12-24T01:17:23;2.90;;;1.53;;
75586;SDS011;64164;50.156;14.570;2022-12-24T01:19:49;1.93;;;1.00;;
75586;SDS011;64164;50.156;14.570;2022-12-24T01:22:14;3.07;;;1.20;;
75586;SDS011;64164;50.156;14.570;2022-12-24T01:24:40;2.60;;;1.30;;
75586;SDS011;64164;50.156;14.570;2022-12-24T01:27:05;4.13;;;1.38;;
75586;SDS011;64164;50.156;14.570;2022-12-24T01:29:30;3.23;;;1.70;;
75586;SDS011;64164;50.156;14.570;2022-12-24T01:31:56;2.63;;;1.70;;
75586;SDS011;64164;50.156;14.570;2022-12-24T01:34:21;2.40;;;1.10;;
75586;SDS011;64164;50.156;14.570;2022-12-24T01:36:46;1.73;;;1.00;;
75586;SDS011;64164;50.156;14.570;2022-12-24T01:39:11;1.63;;;0.97;;
75586;SDS011;64164;50.156;14.570;2022-12-24T01:41:36;1.53;;;0.60;;
75586;SDS011;64164;50.156;14.570;2022-12-24T01:46:45;1.27;;;0.50;;
75586;SDS011;64164;50.156;14.570;2022-12-24T01:49:11;1.90;;;0.85;;
75586;SDS011;64164;50.156;14.570;2022-12-24T01:54:10;2.45;;;1.00;;
75586;SDS011;64164;50.156;14.570;2022-12-24T01:56:39;2.55;;;0.70;;
75586;SDS011;64164;50.156;14.570;2022-12-24T01:59:08;3.10;;;0.68;;
75586;SDS011;64164;50.156;14.570;2022-12-24T02:04:00;2.17;;;0.80;;
75586;SDS011;64164;50.156;14.570;2022-12-24T02:06:26;0.70;;;0.50;;
75586;SDS011;64164;50.156;14.570;2022-12-24T02:08:51;1.90;;;0.50;;
75586;SDS011;64164;50.156;14.570;2022-12-24T02:11:18;0.90;;;0.70;;
75586;SDS011;64164;50.156;14.570;2022-12-24T02:13:44;0.85;;;0.63;;
75586;SDS011;64164;50.156;14.570;2022-12-24T02:16:17;1.25;;;0.60;;
75586;SDS011;64164;50.156;14.570;2022-12-24T02:32:11;0.80;;;0.55;;
75586;SDS011;64164;50.156;14.570;2022-12-24T02:34:38;1.98;;;0.60;;
75586;SDS011;64164;50.156;14.570;2022-12-24T02:39:58;2.47;;;0.90;;
75586;SDS011;64164;50.156;14.570;2022-12-24T02:42:22;0.73;;;0.40;;
75586;SDS011;64164;50.156;14.570;2022-12-24T02:44:52;1.17;;;0.82;;
75586;SDS011;64164;50.156;14.570;2022-12-24T02:47:20;1.42;;;0.75;;
75586;SDS011;64164;50.156;14.570;2022-12-24T02:49:46;3.40;;;0.50;;
75586;SDS011;64164;50.156;14.570;2022-12-24T02:54:56;1.40;;;0.50;;
75586;SDS011;64164;50.156;14.570;2022-12-24T03:00:15;2.28;;;0.70;;
75586;SDS011;64164;50.156;14.570;2022-12-24T03:07:36;2.10;;;0.67;;
75586;SDS011;64164;50.156;14.570;2022-12-24T03:10:05;1.70;;;0.60;;
75586;SDS011;64164;50.156;14.570;2022-12-24T03:12:33;1.42;;;0.80;;
75586;SDS011;64164;50.156;14.570;2022-12-24T03:14:59;2.55;;;0.95;;
75586;SDS011;64164;50.156;14.570;2022-12-24T03:17:25;0.70;;;0.40;;
75586;SDS011;64164;50.156;14.570;2022-12-24T03:19:50;5.13;;;0.68;;
75586;SDS011;64164;50.156;14.570;2022-12-24T03:22:18;2.05;;;0.60;;
75586;SDS011;64164;50.156;14.570;2022-12-24T03:24:44;1.60;;;0.70;;
75586;SDS011;64164;50.156;14.570;2022-12-24T03:27:09;2.37;;;0.80;;
75586;SDS011;64164;50.156;14.570;2022-12-24T03:29:35;3.28;;;0.55;;
75586;SDS011;64164;50.156;14.570;2022-12-24T03:32:02;0.98;;;0.55;;
75586;SDS011;64164;50.156;14.570;2022-12-24T03:34:28;6.60;;;0.90;;
75586;SDS011;64164;50.156;14.570;2022-12-24T03:36:53;0.50;;;0.40;;
75586;SDS011;64164;50.156;14.570;2022-12-24T03:39:18;7.73;;;0.83;;
75586;SDS011;64164;50.156;14.570;2022-12-24T03:41:43;3.47;;;1.07;;
75586;SDS011;64164;50.156;14.570;2022-12-24T03:44:09;3.83;;;0.93;;
75586;SDS011;64164;50.156;14.570;2022-12-24T03:46:34;4.00;;;0.63;;
75586;SDS011;64164;50.156;14.570;2022-12-24T03:48:59;3.03;;;0.77;;
75586;SDS011;64164;50.156;14.570;2022-12-24T03:51:24;3.97;;;0.80;;
75586;SDS011;64164;50.156;14.570;2022-12-24T03:53:53;0.57;;;0.47;;
75586;SDS011;64164;50.156;14.570;2022-12-24T03:56:19;3.08;;;1.10;;
75586;SDS011;64164;50.156;14.570;2022-12-24T03:58:45;2.20;;;1.05;;
75586;SDS011;64164;50.156;14.570;2022-12-24T04:01:10;1.67;;;0.40;;
75586;SDS011;64164;50.156;14.570;2022-12-24T04:03:35;2.80;;;0.90;;
75586;SDS011;64164;50.156;14.570;2022-12-24T04:06:04;3.97;;;0.73;;
75586;SDS011;64164;50.156;14.570;2022-12-24T04:08:30;2.28;;;0.50;;
75586;SDS011;64164;50.156;14.570;2022-12-24T04:10:55;1.50;;;0.70;;
75586;SDS011;64164;50.156;14.570;2022-12-24T04:13:21;1.67;;;0.50;;
75586;SDS011;64164;50.156;14.570;2022-12-24T04:15:55;1.13;;;0.50;;
75586;SDS011;64164;50.156;14.570;2022-12-24T04:18:20;1.73;;;0.50;;
75586;SDS011;64164;50.156;14.570;2022-12-24T04:20:45;2.10;;;0.70;;
75586;SDS011;64164;50.156;14.570;2022-12-24T04:23:10;2.33;;;0.88;;
75586;SDS011;64164;50.156;14.570;2022-12-24T04:25:36;2.07;;;0.70;;
75586;SDS011;64164;50.156;14.570;2022-12-24T04:28:01;5.10;;;0.53;;
75586;SDS011;64164;50.156;14.570;2022-12-24T04:30:26;0.40;;;0.40;;
75586;SDS011;64164;50.156;14.570;2022-12-24T04:32:51;3.30;;;0.60;;
75586;SDS011;64164;50.156;14.570;2022-12-24T04:35:16;5.27;;;1.00;;
75586;SDS011;64164;50.156;14.570;2022-12-24T04:37:42;1.93;;;0.83;;
75586;SDS011;64164;50.156;14.570;2022-12-24T04:40:07;1.53;;;0.50;;
75586;SDS011;64164;50.156;14.570;2022-12-24T04:42:32;7.35;;;0.90;;
75586;SDS011;64164;50.156;14.570;2022-12-24T04:44:58;1.20;;;0.50;;
75586;SDS011;64164;50.156;14.570;2022-12-24T04:47:23;1.30;;;0.57;;
75586;SDS011;64164;50.156;14.570;2022-12-24T04:49:48;2.37;;;0.90;;
75586;SDS011;64164;50.156;14.570;2022-12-24T04:52:14;1.27;;;0.57;;
75586;SDS011;64164;50.156;14.570;2022-12-24T04:54:39;0.50;;;0.37;;
75586;SDS011;64164;50.156;14.570;2022-12-24T04:57:04;1.60;;;0.40;;
75586;SDS011;64164;50.156;14.570;2022-12-24T04:59:30;2.13;;;0.43;;
75586;SDS011;64164;50.156;14.570;2022-12-24T05:01:55;0.63;;;0.40;;
75586;SDS011;64164;50.156;14.570;2022-12-24T05:04:20;2.37;;;0.87;;
75586;SDS011;64164;50.156;14.570;2022-12-24T05:06:45;2.33;;;0.33;;
75586;SDS011;64164;50.156;14.570;2022-12-24T05:09:10;2.23;;;0.50;;
75586;SDS011;64164;50.156;14.570;2022-12-24T05:11:35;4.13;;;0.77;;
75586;SDS011;64164;50.156;14.570;2022-12-24T05:14:01;0.37;;;0.37;;
75586;SDS011;64164;50.156;14.570;2022-12-24T05:16:26;4.63;;;0.90;;
75586;SDS011;64164;50.156;14.570;2022-12-24T05:18:51;3.30;;;0.93;;
75586;SDS011;64164;50.156;14.570;2022-12-24T05:21:18;2.28;;;0.75;;
75586;SDS011;64164;50.156;14.570;2022-12-24T05:23:45;4.05;;;0.68;;
75586;SDS011;64164;50.156;14.570;2022-12-24T05:26:29;0.82;;;0.40;;
75586;SDS011;64164;50.156;14.570;2022-12-24T05:28:56;3.00;;;0.82;;
75586;SDS011;64164;50.156;14.570;2022-12-24T05:31:23;2.53;;;0.57;;
75586;SDS011;64164;50.156;14.570;2022-12-24T05:33:48;1.75;;;0.65;;
75586;SDS011;64164;50.156;14.570;2022-12-24T05:36:14;5.07;;;0.87;;
75586;SDS011;64164;50.156;14.570;2022-12-24T05:38:39;3.28;;;0.65;;
75586;SDS011;64164;50.156;14.570;2022-12-24T05:41:05;1.80;;;0.43;;
75586;SDS011;64164;50.156;14.570;2022-12-24T05:43:30;1.55;;;0.60;;
75586;SDS011;64164;50.156;14.570;2022-12-24T05:45:58;2.67;;;0.67;;
75586;SDS011;64164;50.156;14.570;2022-12-24T05:48:24;2.65;;;0.70;;
75586;SDS011;64164;50.156;14.570;2022-12-24T05:50:49;2.53;;;0.73;;
75586;SDS011;64164;50.156;14.570;2022-12-24T05:53:14;3.27;;;1.03;;
75586;SDS011;64164;50.156;14.570;2022-12-24T05:55:40;1.57;;;0.53;;
75586;SDS011;64164;50.156;14.570;2022-12-24T05:58:05;1.23;;;0.67;;
75586;SDS011;64164;50.156;14.570;2022-12-24T06:00:30;1.37;;;0.40;;
75586;SDS011;64164;50.156;14.570;2022-12-24T06:02:56;1.60;;;0.30;;
75586;SDS011;64164;50.156;14.570;2022-12-24T06:05:21;5.05;;;1.23;;
75586;SDS011;64164;50.156;14.570;2022-12-24T06:07:46;4.00;;;0.93;;
75586;SDS011;64164;50.156;14.570;2022-12-24T06:10:11;7.00;;;1.00;;
75586;SDS011;64164;50.156;14.570;2022-12-24T06:12:37;0.73;;;0.50;;
75586;SDS011;64164;50.156;14.570;2022-12-24T06:15:02;4.63;;;0.80;;
75586;SDS011;64164;50.156;14.570;2022-12-24T06:17:27;2.67;;;0.50;;
75586;SDS011;64164;50.156;14.570;2022-12-24T06:19:52;1.27;;;0.60;;
75586;SDS011;64164;50.156;14.570;2022-12-24T06:22:19;1.83;;;0.35;;
75586;SDS011;64164;50.156;14.570;2022-12-24T06:24:44;3.70;;;0.70;;
75586;SDS011;64164;50.156;14.570;2022-12-24T06:27:09;0.93;;;0.60;;
75586;SDS011;64164;50.156;14.570;2022-12-24T06:29:34;3.50;;;1.23;;
75586;SDS011;64164;50.156;14.570;2022-12-24T06:32:00;2.47;;;0.50;;
75586;SDS011;64164;50.156;14.570;2022-12-24T06:34:25;4.53;;;0.43;;
75586;SDS011;64164;50.156;14.570;2022-12-24T06:36:50;3.07;;;1.40;;
75586;SDS011;64164;50.156;14.570;2022-12-24T06:39:15;5.17;;;0.73;;
75586;SDS011;64164;50.156;14.570;2022-12-24T06:41:41;2.33;;;0.70;;
75586;SDS011;64164;50.156;14.570;2022-12-24T06:44:07;5.23;;;0.73;;
75586;SDS011;64164;50.156;14.570;2022-12-24T06:46:32;2.08;;;0.85;;
75586;SDS011;64164;50.156;14.570;2022-12-24T06:48:57;1.03;;;0.37;;
75586;SDS011;64164;50.156;14.570;2022-12-24T06:51:23;3.37;;;0.60;;
75586;SDS011;64164;50.156;14.570;2022-12-24T06:53:48;2.37;;;0.57;;
75586;SDS011;64164;50.156;14.570;2022-12-24T06:56:14;1.88;;;0.63;;
75586;SDS011;64164;50.156;14.570;2022-12-24T06:58:40;4.97;;;0.63;;
75586;SDS011;64164;50.156;14.570;2022-12-24T07:01:06;7.22;;;2.28;;
75586;SDS011;64164;50.156;14.570;2022-12-24T07:03:32;1.60;;;0.60;;
75586;SDS011;64164;50.156;14.570;2022-12-24T07:05:57;0.73;;;0.50;;
75586;SDS011;64164;50.156;14.570;2022-12-24T07:08:23;6.47;;;1.10;;
75586;SDS011;64164;50.156;14.570;2022-12-24T07:10:49;10.70;;;0.97;;
75586;SDS011;64164;50.156;14.570;2022-12-24T07:13:14;1.17;;;0.50;;
75586;SDS011;64164;50.156;14.570;2022-12-24T07:15:39;0.22;;;0.22;;
75586;SDS011;64164;50.156;14.570;2022-12-24T07:18:05;4.97;;;0.87;;
75586;SDS011;64164;50.156;14.570;2022-12-24T07:20:30;0.80;;;0.50;;
75586;SDS011;64164;50.156;14.570;2022-12-24T07:22:55;2.77;;;0.40;;
75586;SDS011;64164;50.156;14.570;2022-12-24T07:25:20;0.60;;;0.27;;
75586;SDS011;64164;50.156;14.570;2022-12-24T07:27:45;1.17;;;0.63;;
75586;SDS011;64164;50.156;14.570;2022-12-24T07:30:11;2.17;;;0.77;;
75586;SDS011;64164;50.156;14.570;2022-12-24T07:32:36;1.60;;;1.00;;
75586;SDS011;64164;50.156;14.570;2022-12-24T07:35:01;3.07;;;1.00;;
75586;SDS011;64164;50.156;14.570;2022-12-24T07:37:27;1.02;;;0.40;;
75586;SDS011;64164;50.156;14.570;2022-12-24T07:39:52;2.60;;;0.63;;
75586;SDS011;64164;50.156;14.570;2022-12-24T07:42:17;2.20;;;0.60;;
75586;SDS011;64164;50.156;14.570;2022-12-24T07:44:42;1.40;;;0.60;;
75586;SDS011;64164;50.156;14.570;2022-12-24T07:47:08;2.67;;;0.60;;
75586;SDS011;64164;50.156;14.570;2022-12-24T07:49:33;6.70;;;1.20;;
75586;SDS011;64164;50.156;14.570;2022-12-24T07:51:59;3.20;;;0.63;;
75586;SDS011;64164;50.156;14.570;2022-12-24T07:54:24;4.30;;;1.00;;
75586;SDS011;64164;50.156;14.570;2022-12-24T07:56:49;2.13;;;0.67;;
75586;SDS011;64164;50.156;14.570;2022-12-24T07:59:14;1.47;;;0.60;;
75586;SDS011;64164;50.156;14.570;2022-12-24T08:01:40;3.03;;;0.80;;
75586;SDS011;64164;50.156;14.570;2022-12-24T08:04:05;3.45;;;0.70;;
75586;SDS011;64164;50.156;14.570;2022-12-24T08:06:30;2.70;;;0.70;;
75586;SDS011;64164;50.156;14.570;2022-12-24T08:08:55;0.73;;;0.50;;
75586;SDS011;64164;50.156;14.570;2022-12-24T08:11:21;3.17;;;0.80;;
75586;SDS011;64164;50.156;14.570;2022-12-24T08:13:46;1.23;;;0.53;;
75586;SDS011;64164;50.156;14.570;2022-12-24T08:16:11;2.47;;;0.70;;
75586;SDS011;64164;50.156;14.570;2022-12-24T08:18:36;4.03;;;0.87;;
75586;SDS011;64164;50.156;14.570;2022-12-24T08:21:02;2.23;;;0.70;;
75586;SDS011;64164;50.156;14.570;2022-12-24T08:23:27;5.03;;;1.10;;
75586;SDS011;64164;50.156;14.570;2022-12-24T08:25:52;5.00;;;0.80;;
75586;SDS011;64164;50.156;14.570;2022-12-24T08:28:18;4.85;;;1.27;;
75586;SDS011;64164;50.156;14.570;2022-12-24T08:30:44;1.35;;;0.50;;
75586;SDS011;64164;50.156;14.570;2022-12-24T08:33:09;1.83;;;0.88;;
75586;SDS011;64164;50.156;14.570;2022-12-24T08:35:35;3.22;;;0.77;;
75586;SDS011;64164;50.156;14.570;2022-12-24T08:38:00;0.87;;;0.80;;
75586;SDS011;64164;50.156;14.570;2022-12-24T08:40:25;3.70;;;0.90;;
75586;SDS011;64164;50.156;14.570;2022-12-24T08:42:51;7.03;;;1.42;;
75586;SDS011;64164;50.156;14.570;2022-12-24T08:45:16;3.55;;;0.90;;
75586;SDS011;64164;50.156;14.570;2022-12-24T08:47:41;6.97;;;0.97;;
75586;SDS011;64164;50.156;14.570;2022-12-24T08:50:09;5.73;;;0.77;;
75586;SDS011;64164;50.156;14.570;2022-12-24T08:52:34;3.58;;;0.90;;
75586;SDS011;64164;50.156;14.570;2022-12-24T08:55:00;1.40;;;0.65;;
75586;SDS011;64164;50.156;14.570;2022-12-24T08:57:25;1.23;;;0.60;;
75586;SDS011;64164;50.156;14.570;2022-12-24T08:59:50;2.80;;;0.70;;
75586;SDS011;64164;50.156;14.570;2022-12-24T09:02:15;3.60;;;0.90;;
75586;SDS011;64164;50.156;14.570;2022-12-24T09:04:41;7.10;;;1.30;;
75586;SDS011;64164;50.156;14.570;2022-12-24T09:07:06;2.77;;;0.90;;
75586;SDS011;64164;50.156;14.570;2022-12-24T09:09:32;3.80;;;1.10;;
75586;SDS011;64164;50.156;14.570;2022-12-24T09:11:57;3.80;;;1.10;;
75586;SDS011;64164;50.156;14.570;2022-12-24T09:14:22;1.30;;;0.70;;
75586;SDS011;64164;50.156;14.570;2022-12-24T09:16:47;1.70;;;0.73;;
75586;SDS011;64164;50.156;14.570;2022-12-24T09:19:12;3.80;;;0.93;;
75586;SDS011;64164;50.156;14.570;2022-12-24T09:21:38;3.70;;;0.80;;
75586;SDS011;64164;50.156;14.570;2022-12-24T09:24:03;3.00;;;1.23;;
75586;SDS011;64164;50.156;14.570;2022-12-24T09:26:29;1.75;;;0.80;;
75586;SDS011;64164;50.156;14.570;2022-12-24T09:28:55;3.13;;;0.98;;
75586;SDS011;64164;50.156;14.570;2022-12-24T09:31:21;3.65;;;1.00;;
75586;SDS011;64164;50.156;14.570;2022-12-24T09:33:47;2.40;;;0.70;;
75586;SDS011;64164;50.156;14.570;2022-12-24T09:36:12;2.33;;;1.00;;
75586;SDS011;64164;50.156;14.570;2022-12-24T09:38:38;3.92;;;0.88;;
75586;SDS011;64164;50.156;14.570;2022-12-24T09:43:43;4.65;;;1.33;;
75586;SDS011;64164;50.156;14.570;2022-12-24T09:46:16;3.50;;;1.17;;
75586;SDS011;64164;50.156;14.570;2022-12-24T09:48:45;3.38;;;1.38;;
75586;SDS011;64164;50.156;14.570;2022-12-24T09:54:05;4.05;;;1.10;;
75586;SDS011;64164;50.156;14.570;2022-12-24T09:56:32;1.85;;;1.10;;
75586;SDS011;64164;50.156;14.570;2022-12-24T09:58:59;2.20;;;0.75;;
75586;SDS011;64164;50.156;14.570;2022-12-24T10:01:25;4.10;;;1.00;;
75586;SDS011;64164;50.156;14.570;2022-12-24T10:03:53;4.85;;;0.98;;
75586;SDS011;64164;50.156;14.570;2022-12-24T10:06:23;6.53;;;1.27;;
75586;SDS011;64164;50.156;14.570;2022-12-24T10:13:56;3.35;;;0.75;;
75586;SDS011;64164;50.156;14.570;2022-12-24T10:16:38;2.67;;;0.80;;
75586;SDS011;64164;50.156;14.570;2022-12-24T10:24:24;4.90;;;0.90;;
75586;SDS011;64164;50.156;14.570;2022-12-24T10:27:01;1.10;;;0.57;;
75586;SDS011;64164;50.156;14.570;2022-12-24T10:29:33;5.97;;;1.10;;
75586;SDS011;64164;50.156;14.570;2022-12-24T10:32:04;3.60;;;1.13;;
75586;SDS011;64164;50.156;14.570;2022-12-24T10:34:45;6.13;;;1.10;;
75586;SDS011;64164;50.156;14.570;2022-12-24T10:37:18;6.72;;;1.65;;
75586;SDS011;64164;50.156;14.570;2022-12-24T10:39:46;4.82;;;0.98;;
75586;SDS011;64164;50.156;14.570;2022-12-24T10:42:11;8.70;;;1.70;;
75586;SDS011;64164;50.156;14.570;2022-12-24T10:44:37;5.47;;;1.23;;
75586;SDS011;64164;50.156;14.570;2022-12-24T10:47:03;2.87;;;1.00;;
75586;SDS011;64164;50.156;14.570;2022-12-24T10:52:02;2.88;;;0.80;;
75586;SDS011;64164;50.156;14.570;2022-12-24T10:54:28;6.78;;;1.25;;
75586;SDS011;64164;50.156;14.570;2022-12-24T10:56:57;3.50;;;1.10;;
75586;SDS011;64164;50.156;14.570;2022-12-24T10:59:24;3.42;;;1.20;;
75586;SDS011;64164;50.156;14.570;2022-12-24T11:01:50;2.55;;;0.70;;
75586;SDS011;64164;50.156;14.570;2022-12-24T11:04:17;2.40;;;0.65;;
75586;SDS011;64164;50.156;14.570;2022-12-24T11:06:59;4.60;;;1.00;;
75586;SDS011;64164;50.156;14.570;2022-12-24T11:09:59;3.30;;;0.90;;
75586;SDS011;64164;50.156;14.570;2022-12-24T11:12:18;2.70;;;0.95;;
75586;SDS011;64164;50.156;14.570;2022-12-24T11:14:45;2.20;;;0.75;;
75586;SDS011;64164;50.156;14.570;2022-12-24T11:17:20;3.40;;;0.90;;
75586;SDS011;64164;50.156;14.570;2022-12-24T11:19:47;7.07;;;1.40;;
75586;SDS011;64164;50.156;14.570;2022-12-24T11:22:26;1.55;;;0.77;;
75586;SDS011;64164;50.156;14.570;2022-12-24T11:30:12;3.40;;;0.85;;
75586;SDS011;64164;50.156;14.570;2022-12-24T11:32:41;4.30;;;1.20;;
75586;SDS011;64164;50.156;14.570;2022-12-24T11:35:08;2.13;;;0.75;;
75586;SDS011;64164;50.156;14.570;2022-12-24T11:37:38;3.72;;;1.23;;
75586;SDS011;64164;50.156;14.570;2022-12-24T11:40:03;1.90;;;1.00;;
75586;SDS011;64164;50.156;14.570;2022-12-24T11:42:33;4.63;;;1.15;;
75586;SDS011;64164;50.156;14.570;2022-12-24T11:44:59;1.10;;;0.70;;
75586;SDS011;64164;50.156;14.570;2022-12-24T11:47:36;3.70;;;1.17;;
75586;SDS011;64164;50.156;14.570;2022-12-24T11:50:35;1.75;;;0.63;;
75586;SDS011;64164;50.156;14.570;2022-12-24T11:57:57;4.78;;;1.00;;
75586;SDS011;64164;50.156;14.570;2022-12-24T12:00:25;2.58;;;1.00;;
75586;SDS011;64164;50.156;14.570;2022-12-24T12:02:50;4.03;;;0.98;;
75586;SDS011;64164;50.156;14.570;2022-12-24T12:05:17;3.05;;;0.77;;
75586;SDS011;64164;50.156;14.570;2022-12-24T12:07:45;2.58;;;0.93;;
75586;SDS011;64164;50.156;14.570;2022-12-24T12:10:16;2.47;;;1.00;;
75586;SDS011;64164;50.156;14.570;2022-12-24T12:15:27;4.35;;;0.60;;
75586;SDS011;64164;50.156;14.570;2022-12-24T12:17:55;1.13;;;0.77;;
75586;SDS011;64164;50.156;14.570;2022-12-24T12:20:31;3.30;;;1.10;;
75586;SDS011;64164;50.156;14.570;2022-12-24T12:28:21;3.45;;;0.93;;
75586;SDS011;64164;50.156;14.570;2022-12-24T12:30:47;3.20;;;1.30;;
75586;SDS011;64164;50.156;14.570;2022-12-24T12:33:19;2.00;;;0.90;;
75586;SDS011;64164;50.156;14.570;2022-12-24T12:35:46;5.80;;;0.85;;
75586;SDS011;64164;50.156;14.570;2022-12-24T12:38:18;3.75;;;1.10;;
75586;SDS011;64164;50.156;14.570;2022-12-24T12:40:49;4.20;;;1.33;;
75586;SDS011;64164;50.156;14.570;2022-12-24T12:45:49;4.10;;;1.10;;
75586;SDS011;64164;50.156;14.570;2022-12-24T12:51:14;3.40;;;0.93;;
75586;SDS011;64164;50.156;14.570;2022-12-24T12:54:20;3.08;;;1.23;;
75586;SDS011;64164;50.156;14.570;2022-12-24T12:56:35;4.03;;;1.40;;
75586;SDS011;64164;50.156;14.570;2022-12-24T13:01:33;1.63;;;0.80;;
75586;SDS011;64164;50.156;14.570;2022-12-24T13:10:10;3.63;;;1.60;;
75586;SDS011;64164;50.156;14.570;2022-12-24T13:15:11;4.50;;;1.00;;
75586;SDS011;64164;50.156;14.570;2022-12-24T13:23:07;2.42;;;1.00;;
75586;SDS011;64164;50.156;14.570;2022-12-24T13:33:48;5.18;;;1.05;;
75586;SDS011;64164;50.156;14.570;2022-12-24T13:36:14;6.05;;;1.23;;
75586;SDS011;64164;50.156;14.570;2022-12-24T13:38:46;5.53;;;1.40;;
75586;SDS011;64164;50.156;14.570;2022-12-24T13:44:02;7.68;;;1.45;;
75586;SDS011;64164;50.156;14.570;2022-12-24T13:49:14;1.55;;;0.65;;
75586;SDS011;64164;50.156;14.570;2022-12-24T13:51:41;9.00;;;1.30;;
75586;SDS011;64164;50.156;14.570;2022-12-24T13:54:08;4.73;;;1.30;;
75586;SDS011;64164;50.156;14.570;2022-12-24T13:56:34;7.57;;;1.60;;
75586;SDS011;64164;50.156;14.570;2022-12-24T13:59:19;2.95;;;1.10;;
75586;SDS011;64164;50.156;14.570;2022-12-24T14:01:47;1.95;;;0.90;;
75586;SDS011;64164;50.156;14.570;2022-12-24T14:04:20;2.70;;;1.10;;
75586;SDS011;64164;50.156;14.570;2022-12-24T14:06:47;6.13;;;1.50;;
75586;SDS011;64164;50.156;14.570;2022-12-24T14:09:17;2.58;;;1.23;;
75586;SDS011;64164;50.156;14.570;2022-12-24T14:14:39;1.65;;;0.90;;
75586;SDS011;64164;50.156;14.570;2022-12-24T14:17:20;2.22;;;1.20;;
75586;SDS011;64164;50.156;14.570;2022-12-24T14:19:55;3.20;;;1.40;;
75586;SDS011;64164;50.156;14.570;2022-12-24T14:24:50;4.27;;;1.00;;
75586;SDS011;64164;50.156;14.570;2022-12-24T14:27:18;6.30;;;1.52;;
75586;SDS011;64164;50.156;14.570;2022-12-24T14:32:13;3.58;;;1.15;;
75586;SDS011;64164;50.156;14.570;2022-12-24T14:34:39;4.13;;;1.25;;
75586;SDS011;64164;50.156;14.570;2022-12-24T14:37:04;4.43;;;1.43;;
75586;SDS011;64164;50.156;14.570;2022-12-24T14:39:31;3.93;;;1.60;;
75586;SDS011;64164;50.156;14.570;2022-12-24T14:44:45;2.70;;;1.30;;
75586;SDS011;64164;50.156;14.570;2022-12-24T14:47:21;3.05;;;1.33;;
75586;SDS011;64164;50.156;14.570;2022-12-24T14:52:26;1.70;;;1.00;;
75586;SDS011;64164;50.156;14.570;2022-12-24T14:54:54;4.32;;;1.38;;
75586;SDS011;64164;50.156;14.570;2022-12-24T14:57:20;4.60;;;1.20;;
75586;SDS011;64164;50.156;14.570;2022-12-24T15:05:19;2.97;;;1.10;;
75586;SDS011;64164;50.156;14.570;2022-12-24T15:08:09;4.80;;;1.33;;
75586;SDS011;64164;50.156;14.570;2022-12-24T15:10:33;4.32;;;1.50;;
75586;SDS011;64164;50.156;14.570;2022-12-24T15:13:05;3.22;;;1.17;;
75586;SDS011;64164;50.156;14.570;2022-12-24T15:15:31;3.47;;;1.48;;
75586;SDS011;64164;50.156;14.570;2022-12-24T15:17:57;6.50;;;1.48;;
75586;SDS011;64164;50.156;14.570;2022-12-24T15:20:24;4.93;;;1.83;;
75586;SDS011;64164;50.156;14.570;2022-12-24T15:22:51;4.57;;;2.08;;
75586;SDS011;64164;50.156;14.570;2022-12-24T15:25:25;4.20;;;1.63;;
75586;SDS011;64164;50.156;14.570;2022-12-24T15:27:51;4.03;;;1.88;;
75586;SDS011;64164;50.156;14.570;2022-12-24T15:30:18;3.75;;;1.60;;
75586;SDS011;64164;50.156;14.570;2022-12-24T15:32:44;5.57;;;2.30;;
75586;SDS011;64164;50.156;14.570;2022-12-24T15:40:48;8.85;;;1.77;;
75586;SDS011;64164;50.156;14.570;2022-12-24T15:43:13;4.33;;;1.70;;
75586;SDS011;64164;50.156;14.570;2022-12-24T15:45:39;4.93;;;1.87;;
75586;SDS011;64164;50.156;14.570;2022-12-24T15:48:07;7.05;;;1.70;;
75586;SDS011;64164;50.156;14.570;2022-12-24T15:50:42;6.78;;;1.75;;
75586;SDS011;64164;50.156;14.570;2022-12-24T15:53:12;6.38;;;1.98;;
75586;SDS011;64164;50.156;14.570;2022-12-24T15:55:43;3.85;;;1.98;;
75586;SDS011;64164;50.156;14.570;2022-12-24T15:58:15;5.20;;;1.75;;
75586;SDS011;64164;50.156;14.570;2022-12-24T16:00:41;7.57;;;1.65;;
75586;SDS011;64164;50.156;14.570;2022-12-24T16:03:10;5.00;;;1.93;;
75586;SDS011;64164;50.156;14.570;2022-12-24T16:05:40;8.65;;;2.00;;
75586;SDS011;64164;50.156;14.570;2022-12-24T16:13:15;4.55;;;1.80;;
75586;SDS011;64164;50.156;14.570;2022-12-24T16:15:42;3.25;;;1.10;;
75586;SDS011;64164;50.156;14.570;2022-12-24T16:18:14;6.78;;;2.00;;
75586;SDS011;64164;50.156;14.570;2022-12-24T16:20:43;5.30;;;1.48;;
75586;SDS011;64164;50.156;14.570;2022-12-24T16:23:19;3.60;;;1.15;;
75586;SDS011;64164;50.156;14.570;2022-12-24T16:25:45;3.58;;;1.83;;
75586;SDS011;64164;50.156;14.570;2022-12-24T16:28:11;4.77;;;1.47;;
75586;SDS011;64164;50.156;14.570;2022-12-24T16:30:36;5.85;;;1.50;;
75586;SDS011;64164;50.156;14.570;2022-12-24T16:33:01;4.88;;;1.75;;
75586;SDS011;64164;50.156;14.570;2022-12-24T16:35:27;3.30;;;1.63;;
75586;SDS011;64164;50.156;14.570;2022-12-24T16:37:54;4.57;;;1.40;;
75586;SDS011;64164;50.156;14.570;2022-12-24T16:40:19;8.15;;;1.48;;
75586;SDS011;64164;50.156;14.570;2022-12-24T16:42:45;2.85;;;1.38;;
75586;SDS011;64164;50.156;14.570;2022-12-24T16:45:29;4.57;;;1.58;;
75586;SDS011;64164;50.156;14.570;2022-12-24T16:47:58;7.25;;;1.60;;
75586;SDS011;64164;50.156;14.570;2022-12-24T16:50:24;7.10;;;2.10;;